CheckWX is a tool to help pilots better visualize weather data.  It is not intended as a substitute for an official pre-flight weather briefing.

04:40:15 UTC

KTOP TAF
Philip Billard Municipal Airport
Topeka, Kansas, USA
KTOP 222340Z 2300/2324 08004KT P6SM BKN200 FM230700 10005KT P6SM VCSH OVC060 FM231300 11010KT P6SM -SHRA BKN050 OVC100 FM231800 13012KT P6SM -SHRA BKN015 OVC020

Mar-23@
00:00 UTC

Mar-23 @ 00:00 UTC

Mar-23@
07:00 UTC

Mar-23 @ 07:00 UTC

KTOP 222340Z 2300/2324 08004KT P6SM BKN200
Wind
  • 080° at 4 KTS
Cloud Levels
  • Broken at 20,000' AGL

Mar-23@
07:00 UTC

Mar-23 @ 07:00 UTC

Mar-23@
13:00 UTC

Mar-23 @ 13:00 UTC

FM230700 10005KT P6SM VCSH OVC060

From

From Standard forecast or significant change

Wind
  • 100° at 5 KTS
Cloud Levels
  • Overcast at 6,000' AGL

Mar-23@
13:00 UTC

Mar-23 @ 13:00 UTC

Mar-23@
18:00 UTC

Mar-23 @ 18:00 UTC

FM231300 11010KT P6SM -SHRA BKN050 OVC100

From

From Standard forecast or significant change

Wind
  • 110° at 10 KTS
Conditions
Light Rain
Cloud Levels
  • Broken at 5,000' AGL
  • Overcast at 10,000' AGL

Mar-23@
18:00 UTC

Mar-23 @ 18:00 UTC

Mar-24@
00:00 UTC

Mar-24 @ 00:00 UTC

FM231800 13012KT P6SM -SHRA BKN015 OVC020

From

From Standard forecast or significant change

Wind
  • 130° at 12 KTS
Conditions
Light Rain
Cloud Levels
  • Broken at 1,500' AGL
  • Overcast at 2,000' AGL